sensor_id;sensor_type;location;lat;lon;timestamp;P1;durP1;ratioP1;P2;durP2;ratioP2
7181;SDS011;3632;42.724;23.298;2023-06-10T00:02:12;6.70;;;5.60;;
7181;SDS011;3632;42.724;23.298;2023-06-10T00:04:39;8.40;;;5.80;;
7181;SDS011;3632;42.724;23.298;2023-06-10T00:07:06;9.80;;;6.20;;
7181;SDS011;3632;42.724;23.298;2023-06-10T00:09:35;13.17;;;6.50;;
7181;SDS011;3632;42.724;23.298;2023-06-10T00:12:03;12.07;;;6.40;;
7181;SDS011;3632;42.724;23.298;2023-06-10T00:14:30;8.63;;;6.20;;
7181;SDS011;3632;42.724;23.298;2023-06-10T00:16:57;6.80;;;6.20;;
7181;SDS011;3632;42.724;23.298;2023-06-10T00:19:24;12.53;;;10.43;;
7181;SDS011;3632;42.724;23.298;2023-06-10T00:21:55;6.63;;;6.00;;
7181;SDS011;3632;42.724;23.298;2023-06-10T00:24:22;8.77;;;5.63;;
7181;SDS011;3632;42.724;23.298;2023-06-10T00:26:50;8.17;;;5.50;;
7181;SDS011;3632;42.724;23.298;2023-06-10T00:29:17;6.70;;;6.00;;
7181;SDS011;3632;42.724;23.298;2023-06-10T00:31:44;14.53;;;10.37;;
7181;SDS011;3632;42.724;23.298;2023-06-10T00:34:11;7.90;;;6.40;;
7181;SDS011;3632;42.724;23.298;2023-06-10T00:36:38;6.93;;;5.83;;
7181;SDS011;3632;42.724;23.298;2023-06-10T00:39:05;8.73;;;6.43;;
7181;SDS011;3632;42.724;23.298;2023-06-10T00:41:33;8.13;;;6.70;;
7181;SDS011;3632;42.724;23.298;2023-06-10T00:44:01;7.30;;;6.30;;
7181;SDS011;3632;42.724;23.298;2023-06-10T00:46:28;7.87;;;6.10;;
7181;SDS011;3632;42.724;23.298;2023-06-10T00:48:57;7.37;;;6.40;;
7181;SDS011;3632;42.724;23.298;2023-06-10T00:51:25;7.33;;;6.53;;
7181;SDS011;3632;42.724;23.298;2023-06-10T00:53:52;9.37;;;6.33;;
7181;SDS011;3632;42.724;23.298;2023-06-10T00:56:20;8.03;;;6.53;;
7181;SDS011;3632;42.724;23.298;2023-06-10T00:58:47;9.60;;;6.60;;
7181;SDS011;3632;42.724;23.298;2023-06-10T01:01:17;7.30;;;6.20;;
7181;SDS011;3632;42.724;23.298;2023-06-10T01:03:45;8.27;;;6.57;;
7181;SDS011;3632;42.724;23.298;2023-06-10T01:06:14;10.53;;;6.30;;
7181;SDS011;3632;42.724;23.298;2023-06-10T01:08:50;9.87;;;8.10;;
7181;SDS011;3632;42.724;23.298;2023-06-10T01:11:25;15.00;;;11.97;;
7181;SDS011;3632;42.724;23.298;2023-06-10T01:14:00;12.97;;;10.33;;
7181;SDS011;3632;42.724;23.298;2023-06-10T01:16:30;10.70;;;7.07;;
7181;SDS011;3632;42.724;23.298;2023-06-10T01:18:57;7.80;;;7.10;;
7181;SDS011;3632;42.724;23.298;2023-06-10T01:21:26;11.20;;;7.57;;
7181;SDS011;3632;42.724;23.298;2023-06-10T01:23:53;12.10;;;9.07;;
7181;SDS011;3632;42.724;23.298;2023-06-10T01:26:24;8.63;;;7.83;;
7181;SDS011;3632;42.724;23.298;2023-06-10T01:28:57;9.13;;;7.30;;
7181;SDS011;3632;42.724;23.298;2023-06-10T01:31:30;7.57;;;6.83;;
7181;SDS011;3632;42.724;23.298;2023-06-10T01:34:05;7.40;;;6.70;;
7181;SDS011;3632;42.724;23.298;2023-06-10T01:36:36;9.37;;;7.03;;
7181;SDS011;3632;42.724;23.298;2023-06-10T01:39:04;8.37;;;6.50;;
7181;SDS011;3632;42.724;23.298;2023-06-10T01:41:34;8.73;;;6.93;;
7181;SDS011;3632;42.724;23.298;2023-06-10T01:44:01;10.03;;;7.10;;
7181;SDS011;3632;42.724;23.298;2023-06-10T01:46:28;10.63;;;8.70;;
7181;SDS011;3632;42.724;23.298;2023-06-10T01:48:55;9.60;;;8.13;;
7181;SDS011;3632;42.724;23.298;2023-06-10T01:51:22;7.27;;;6.57;;
7181;SDS011;3632;42.724;23.298;2023-06-10T01:53:50;8.43;;;7.07;;
7181;SDS011;3632;42.724;23.298;2023-06-10T01:56:17;10.40;;;8.03;;
7181;SDS011;3632;42.724;23.298;2023-06-10T01:58:45;10.17;;;7.60;;
7181;SDS011;3632;42.724;23.298;2023-06-10T02:01:12;7.90;;;7.13;;
7181;SDS011;3632;42.724;23.298;2023-06-10T02:03:39;8.53;;;7.83;;
7181;SDS011;3632;42.724;23.298;2023-06-10T02:06:06;8.37;;;7.57;;
7181;SDS011;3632;42.724;23.298;2023-06-10T02:08:33;8.73;;;7.83;;
7181;SDS011;3632;42.724;23.298;2023-06-10T02:11:01;7.63;;;6.93;;
7181;SDS011;3632;42.724;23.298;2023-06-10T02:13:28;8.40;;;7.60;;
7181;SDS011;3632;42.724;23.298;2023-06-10T02:15:55;9.77;;;8.07;;
7181;SDS011;3632;42.724;23.298;2023-06-10T02:18:22;8.10;;;7.30;;
7181;SDS011;3632;42.724;23.298;2023-06-10T02:20:49;8.97;;;7.40;;
7181;SDS011;3632;42.724;23.298;2023-06-10T02:23:16;8.60;;;7.63;;
7181;SDS011;3632;42.724;23.298;2023-06-10T02:25:43;9.70;;;8.63;;
7181;SDS011;3632;42.724;23.298;2023-06-10T02:28:11;11.10;;;8.43;;
7181;SDS011;3632;42.724;23.298;2023-06-10T02:30:38;10.43;;;8.17;;
7181;SDS011;3632;42.724;23.298;2023-06-10T02:33:06;8.70;;;7.83;;
7181;SDS011;3632;42.724;23.298;2023-06-10T02:35:35;10.33;;;8.23;;
7181;SDS011;3632;42.724;23.298;2023-06-10T02:38:02;9.27;;;7.63;;
7181;SDS011;3632;42.724;23.298;2023-06-10T02:40:30;9.50;;;8.50;;
7181;SDS011;3632;42.724;23.298;2023-06-10T02:42:57;10.03;;;8.40;;
7181;SDS011;3632;42.724;23.298;2023-06-10T02:45:26;8.67;;;7.90;;
7181;SDS011;3632;42.724;23.298;2023-06-10T02:47:53;9.03;;;8.17;;
7181;SDS011;3632;42.724;23.298;2023-06-10T02:50:20;11.23;;;8.10;;
7181;SDS011;3632;42.724;23.298;2023-06-10T02:52:47;10.07;;;8.30;;
7181;SDS011;3632;42.724;23.298;2023-06-10T02:55:14;9.03;;;8.03;;
7181;SDS011;3632;42.724;23.298;2023-06-10T02:57:41;10.47;;;8.00;;
7181;SDS011;3632;42.724;23.298;2023-06-10T03:00:08;9.60;;;8.07;;
7181;SDS011;3632;42.724;23.298;2023-06-10T03:02:38;9.43;;;8.10;;
7181;SDS011;3632;42.724;23.298;2023-06-10T03:05:05;8.67;;;7.80;;
7181;SDS011;3632;42.724;23.298;2023-06-10T03:07:35;8.77;;;7.87;;
7181;SDS011;3632;42.724;23.298;2023-06-10T03:10:02;8.87;;;8.17;;
7181;SDS011;3632;42.724;23.298;2023-06-10T03:12:30;11.20;;;10.03;;
7181;SDS011;3632;42.724;23.298;2023-06-10T03:14:57;9.93;;;8.93;;
7181;SDS011;3632;42.724;23.298;2023-06-10T03:17:24;9.17;;;8.27;;
7181;SDS011;3632;42.724;23.298;2023-06-10T03:19:52;10.03;;;8.07;;
7181;SDS011;3632;42.724;23.298;2023-06-10T03:22:19;9.67;;;7.80;;
7181;SDS011;3632;42.724;23.298;2023-06-10T03:24:45;9.43;;;8.40;;
7181;SDS011;3632;42.724;23.298;2023-06-10T03:27:15;9.53;;;8.40;;
7181;SDS011;3632;42.724;23.298;2023-06-10T03:29:42;10.13;;;8.73;;
7181;SDS011;3632;42.724;23.298;2023-06-10T03:32:09;9.03;;;8.13;;
7181;SDS011;3632;42.724;23.298;2023-06-10T03:34:36;9.43;;;7.40;;
7181;SDS011;3632;42.724;23.298;2023-06-10T03:37:05;9.50;;;8.30;;
7181;SDS011;3632;42.724;23.298;2023-06-10T03:39:32;9.60;;;7.57;;
7181;SDS011;3632;42.724;23.298;2023-06-10T03:41:59;8.67;;;7.77;;
7181;SDS011;3632;42.724;23.298;2023-06-10T03:44:26;8.07;;;7.30;;
7181;SDS011;3632;42.724;23.298;2023-06-10T03:46:54;8.40;;;7.13;;
7181;SDS011;3632;42.724;23.298;2023-06-10T03:49:21;7.30;;;6.60;;
7181;SDS011;3632;42.724;23.298;2023-06-10T03:51:52;7.87;;;7.07;;
7181;SDS011;3632;42.724;23.298;2023-06-10T03:54:20;7.90;;;5.90;;
7181;SDS011;3632;42.724;23.298;2023-06-10T03:56:47;8.10;;;6.27;;
7181;SDS011;3632;42.724;23.298;2023-06-10T03:59:14;6.87;;;5.53;;
7181;SDS011;3632;42.724;23.298;2023-06-10T04:01:41;6.50;;;5.73;;
7181;SDS011;3632;42.724;23.298;2023-06-10T04:04:08;6.27;;;5.67;;
7181;SDS011;3632;42.724;23.298;2023-06-10T04:06:35;8.73;;;5.87;;
7181;SDS011;3632;42.724;23.298;2023-06-10T04:09:06;6.90;;;6.13;;
7181;SDS011;3632;42.724;23.298;2023-06-10T04:11:36;6.27;;;5.67;;
7181;SDS011;3632;42.724;23.298;2023-06-10T04:14:03;5.60;;;5.10;;
7181;SDS011;3632;42.724;23.298;2023-06-10T04:16:30;6.80;;;5.60;;
7181;SDS011;3632;42.724;23.298;2023-06-10T04:18:57;8.40;;;6.57;;
7181;SDS011;3632;42.724;23.298;2023-06-10T04:21:25;7.00;;;6.30;;
7181;SDS011;3632;42.724;23.298;2023-06-10T04:23:52;8.33;;;7.00;;
7181;SDS011;3632;42.724;23.298;2023-06-10T04:26:19;13.37;;;10.57;;
7181;SDS011;3632;42.724;23.298;2023-06-10T04:28:48;18.17;;;16.27;;
7181;SDS011;3632;42.724;23.298;2023-06-10T04:31:15;16.03;;;14.23;;
7181;SDS011;3632;42.724;23.298;2023-06-10T04:33:42;10.87;;;9.73;;
7181;SDS011;3632;42.724;23.298;2023-06-10T04:36:09;8.30;;;7.10;;
7181;SDS011;3632;42.724;23.298;2023-06-10T04:38:36;8.80;;;7.40;;
7181;SDS011;3632;42.724;23.298;2023-06-10T04:41:03;7.87;;;7.13;;
7181;SDS011;3632;42.724;23.298;2023-06-10T04:43:30;9.93;;;8.07;;
7181;SDS011;3632;42.724;23.298;2023-06-10T04:45:58;8.60;;;7.70;;
7181;SDS011;3632;42.724;23.298;2023-06-10T04:48:25;9.17;;;7.03;;
7181;SDS011;3632;42.724;23.298;2023-06-10T04:50:52;7.03;;;6.33;;
7181;SDS011;3632;42.724;23.298;2023-06-10T04:53:19;7.63;;;6.93;;
7181;SDS011;3632;42.724;23.298;2023-06-10T04:55:46;8.63;;;6.73;;
7181;SDS011;3632;42.724;23.298;2023-06-10T04:58:13;7.97;;;7.27;;
7181;SDS011;3632;42.724;23.298;2023-06-10T05:00:41;9.17;;;8.00;;
7181;SDS011;3632;42.724;23.298;2023-06-10T05:03:10;12.40;;;10.33;;
7181;SDS011;3632;42.724;23.298;2023-06-10T05:05:36;11.50;;;9.77;;
7181;SDS011;3632;42.724;23.298;2023-06-10T05:08:03;10.53;;;8.93;;
7181;SDS011;3632;42.724;23.298;2023-06-10T05:10:30;10.87;;;9.53;;
7181;SDS011;3632;42.724;23.298;2023-06-10T05:12:59;11.80;;;9.17;;
7181;SDS011;3632;42.724;23.298;2023-06-10T05:15:26;9.37;;;8.40;;
7181;SDS011;3632;42.724;23.298;2023-06-10T05:17:53;10.73;;;8.60;;
7181;SDS011;3632;42.724;23.298;2023-06-10T05:20:23;10.27;;;8.73;;
7181;SDS011;3632;42.724;23.298;2023-06-10T05:22:50;9.40;;;7.80;;
7181;SDS011;3632;42.724;23.298;2023-06-10T05:25:18;9.97;;;7.60;;
7181;SDS011;3632;42.724;23.298;2023-06-10T05:27:45;9.23;;;7.27;;
7181;SDS011;3632;42.724;23.298;2023-06-10T05:30:12;11.00;;;8.07;;
7181;SDS011;3632;42.724;23.298;2023-06-10T05:32:39;8.40;;;7.50;;
7181;SDS011;3632;42.724;23.298;2023-06-10T05:35:06;7.23;;;6.17;;
7181;SDS011;3632;42.724;23.298;2023-06-10T05:37:35;6.80;;;6.13;;
7181;SDS011;3632;42.724;23.298;2023-06-10T05:40:02;7.73;;;6.33;;
7181;SDS011;3632;42.724;23.298;2023-06-10T05:42:30;10.43;;;7.20;;
7181;SDS011;3632;42.724;23.298;2023-06-10T05:44:57;9.37;;;7.30;;
7181;SDS011;3632;42.724;23.298;2023-06-10T05:47:24;7.87;;;6.60;;
7181;SDS011;3632;42.724;23.298;2023-06-10T05:49:51;10.60;;;6.53;;
7181;SDS011;3632;42.724;23.298;2023-06-10T05:52:18;10.33;;;6.60;;
7181;SDS011;3632;42.724;23.298;2023-06-10T05:54:47;9.77;;;7.70;;
7181;SDS011;3632;42.724;23.298;2023-06-10T05:57:15;9.33;;;8.33;;
7181;SDS011;3632;42.724;23.298;2023-06-10T05:59:43;8.37;;;7.63;;
7181;SDS011;3632;42.724;23.298;2023-06-10T06:02:10;9.10;;;7.60;;
7181;SDS011;3632;42.724;23.298;2023-06-10T06:04:37;8.57;;;7.67;;
7181;SDS011;3632;42.724;23.298;2023-06-10T06:07:07;9.37;;;8.20;;
7181;SDS011;3632;42.724;23.298;2023-06-10T06:09:36;12.10;;;7.20;;
7181;SDS011;3632;42.724;23.298;2023-06-10T06:12:05;7.40;;;6.70;;
7181;SDS011;3632;42.724;23.298;2023-06-10T06:14:36;9.23;;;7.63;;
7181;SDS011;3632;42.724;23.298;2023-06-10T06:17:04;11.97;;;8.43;;
7181;SDS011;3632;42.724;23.298;2023-06-10T06:19:31;8.33;;;6.93;;
7181;SDS011;3632;42.724;23.298;2023-06-10T06:21:58;7.47;;;6.63;;
7181;SDS011;3632;42.724;23.298;2023-06-10T06:24:25;8.23;;;6.90;;
7181;SDS011;3632;42.724;23.298;2023-06-10T06:26:52;8.73;;;7.47;;
7181;SDS011;3632;42.724;23.298;2023-06-10T06:29:21;9.00;;;7.40;;
7181;SDS011;3632;42.724;23.298;2023-06-10T06:31:48;8.50;;;6.90;;
7181;SDS011;3632;42.724;23.298;2023-06-10T06:34:15;7.30;;;6.50;;
7181;SDS011;3632;42.724;23.298;2023-06-10T06:36:42;7.23;;;6.30;;
7181;SDS011;3632;42.724;23.298;2023-06-10T06:39:09;8.40;;;6.63;;
7181;SDS011;3632;42.724;23.298;2023-06-10T06:41:36;7.73;;;6.93;;
7181;SDS011;3632;42.724;23.298;2023-06-10T06:44:03;10.53;;;8.27;;
7181;SDS011;3632;42.724;23.298;2023-06-10T06:46:31;10.27;;;8.20;;
7181;SDS011;3632;42.724;23.298;2023-06-10T06:48:58;7.17;;;6.53;;
7181;SDS011;3632;42.724;23.298;2023-06-10T06:51:25;8.10;;;7.03;;
7181;SDS011;3632;42.724;23.298;2023-06-10T06:53:52;7.00;;;6.30;;
7181;SDS011;3632;42.724;23.298;2023-06-10T06:56:21;8.17;;;6.27;;
7181;SDS011;3632;42.724;23.298;2023-06-10T06:58:49;8.77;;;7.47;;
7181;SDS011;3632;42.724;23.298;2023-06-10T07:01:17;11.40;;;7.87;;
7181;SDS011;3632;42.724;23.298;2023-06-10T07:03:45;9.13;;;7.27;;
7181;SDS011;3632;42.724;23.298;2023-06-10T07:06:12;9.87;;;8.87;;
7181;SDS011;3632;42.724;23.298;2023-06-10T07:08:39;8.87;;;7.37;;
7181;SDS011;3632;42.724;23.298;2023-06-10T07:11:06;11.03;;;7.27;;
7181;SDS011;3632;42.724;23.298;2023-06-10T07:13:33;6.40;;;5.80;;
7181;SDS011;3632;42.724;23.298;2023-06-10T07:16:00;8.87;;;6.67;;
7181;SDS011;3632;42.724;23.298;2023-06-10T07:18:27;10.13;;;7.90;;
7181;SDS011;3632;42.724;23.298;2023-06-10T07:20:55;6.50;;;5.90;;
7181;SDS011;3632;42.724;23.298;2023-06-10T07:23:22;8.07;;;6.40;;
7181;SDS011;3632;42.724;23.298;2023-06-10T07:25:50;8.10;;;5.10;;
7181;SDS011;3632;42.724;23.298;2023-06-10T07:28:17;7.40;;;5.43;;
7181;SDS011;3632;42.724;23.298;2023-06-10T07:30:44;4.70;;;3.90;;
7181;SDS011;3632;42.724;23.298;2023-06-10T07:33:11;7.33;;;4.50;;
7181;SDS011;3632;42.724;23.298;2023-06-10T07:35:38;6.90;;;4.67;;
7181;SDS011;3632;42.724;23.298;2023-06-10T07:38:07;5.70;;;5.20;;
7181;SDS011;3632;42.724;23.298;2023-06-10T07:40:33;7.53;;;5.67;;
7181;SDS011;3632;42.724;23.298;2023-06-10T07:43:01;7.63;;;5.80;;
7181;SDS011;3632;42.724;23.298;2023-06-10T07:45:28;10.90;;;5.97;;
7181;SDS011;3632;42.724;23.298;2023-06-10T07:47:55;8.07;;;6.00;;
7181;SDS011;3632;42.724;23.298;2023-06-10T07:50:22;7.50;;;5.60;;
7181;SDS011;3632;42.724;23.298;2023-06-10T07:52:49;26.83;;;8.73;;
7181;SDS011;3632;42.724;23.298;2023-06-10T07:55:18;31.57;;;8.30;;
7181;SDS011;3632;42.724;23.298;2023-06-10T07:57:44;6.30;;;4.43;;
7181;SDS011;3632;42.724;23.298;2023-06-10T08:00:12;9.43;;;5.23;;
7181;SDS011;3632;42.724;23.298;2023-06-10T08:02:39;32.47;;;12.93;;
7181;SDS011;3632;42.724;23.298;2023-06-10T08:05:07;13.10;;;6.50;;
7181;SDS011;3632;42.724;23.298;2023-06-10T08:07:34;7.93;;;4.83;;
7181;SDS011;3632;42.724;23.298;2023-06-10T08:10:01;9.50;;;4.60;;
7181;SDS011;3632;42.724;23.298;2023-06-10T08:12:30;4.87;;;4.00;;
7181;SDS011;3632;42.724;23.298;2023-06-10T08:14:57;18.83;;;5.60;;
7181;SDS011;3632;42.724;23.298;2023-06-10T08:17:25;5.03;;;4.30;;
7181;SDS011;3632;42.724;23.298;2023-06-10T08:19:53;4.73;;;4.23;;
7181;SDS011;3632;42.724;23.298;2023-06-10T08:22:20;5.70;;;4.03;;
7181;SDS011;3632;42.724;23.298;2023-06-10T08:24:47;9.07;;;5.00;;
7181;SDS011;3632;42.724;23.298;2023-06-10T08:27:13;5.63;;;3.93;;
7181;SDS011;3632;42.724;23.298;2023-06-10T08:29:42;5.97;;;5.37;;
7181;SDS011;3632;42.724;23.298;2023-06-10T08:32:09;9.97;;;5.40;;
7181;SDS011;3632;42.724;23.298;2023-06-10T08:34:36;7.57;;;5.60;;
7181;SDS011;3632;42.724;23.298;2023-06-10T08:39:45;6.30;;;4.47;;
7181;SDS011;3632;42.724;23.298;2023-06-10T08:42:17;5.13;;;3.80;;
7181;SDS011;3632;42.724;23.298;2023-06-10T08:45:00;7.13;;;4.80;;
7181;SDS011;3632;42.724;23.298;2023-06-10T08:47:31;8.40;;;3.60;;
7181;SDS011;3632;42.724;23.298;2023-06-10T08:50:02;8.40;;;3.40;;
7181;SDS011;3632;42.724;23.298;2023-06-10T08:52:34;3.43;;;3.10;;
7181;SDS011;3632;42.724;23.298;2023-06-10T08:55:03;6.23;;;3.30;;
7181;SDS011;3632;42.724;23.298;2023-06-10T08:57:36;5.57;;;3.80;;
7181;SDS011;3632;42.724;23.298;2023-06-10T09:00:05;2.80;;;2.60;;
7181;SDS011;3632;42.724;23.298;2023-06-10T09:02:33;4.13;;;2.87;;
7181;SDS011;3632;42.724;23.298;2023-06-10T09:05:01;2.80;;;2.60;;
7181;SDS011;3632;42.724;23.298;2023-06-10T09:07:29;5.23;;;2.83;;
7181;SDS011;3632;42.724;23.298;2023-06-10T09:09:59;6.10;;;5.17;;
7181;SDS011;3632;42.724;23.298;2023-06-10T09:12:28;4.13;;;3.70;;
7181;SDS011;3632;42.724;23.298;2023-06-10T09:14:56;6.27;;;4.30;;
7181;SDS011;3632;42.724;23.298;2023-06-10T09:17:24;20.63;;;5.27;;
7181;SDS011;3632;42.724;23.298;2023-06-10T09:19:52;12.23;;;4.40;;
7181;SDS011;3632;42.724;23.298;2023-06-10T09:22:20;5.93;;;4.23;;
7181;SDS011;3632;42.724;23.298;2023-06-10T09:24:48;6.00;;;4.43;;
7181;SDS011;3632;42.724;23.298;2023-06-10T09:27:15;4.33;;;3.83;;
7181;SDS011;3632;42.724;23.298;2023-06-10T09:29:46;8.87;;;3.60;;
7181;SDS011;3632;42.724;23.298;2023-06-10T09:32:14;22.17;;;4.77;;
7181;SDS011;3632;42.724;23.298;2023-06-10T09:34:45;4.17;;;3.10;;
7181;SDS011;3632;42.724;23.298;2023-06-10T09:37:12;6.47;;;5.37;;
7181;SDS011;3632;42.724;23.298;2023-06-10T09:39:46;12.63;;;4.57;;
7181;SDS011;3632;42.724;23.298;2023-06-10T09:42:29;9.67;;;5.40;;
7181;SDS011;3632;42.724;23.298;2023-06-10T09:45:00;11.37;;;6.40;;
7181;SDS011;3632;42.724;23.298;2023-06-10T09:47:27;11.10;;;4.37;;
7181;SDS011;3632;42.724;23.298;2023-06-10T09:49:57;16.77;;;5.23;;
7181;SDS011;3632;42.724;23.298;2023-06-10T09:52:25;11.63;;;3.83;;
7181;SDS011;3632;42.724;23.298;2023-06-10T09:54:53;5.83;;;4.50;;
7181;SDS011;3632;42.724;23.298;2023-06-10T09:57:21;3.80;;;3.37;;
7181;SDS011;3632;42.724;23.298;2023-06-10T09:59:48;9.80;;;3.80;;
7181;SDS011;3632;42.724;23.298;2023-06-10T10:02:19;4.37;;;3.00;;
7181;SDS011;3632;42.724;23.298;2023-06-10T10:04:47;4.00;;;3.10;;
7181;SDS011;3632;42.724;23.298;2023-06-10T10:07:18;3.50;;;3.20;;
7181;SDS011;3632;42.724;23.298;2023-06-10T10:09:48;3.23;;;2.63;;
7181;SDS011;3632;42.724;23.298;2023-06-10T10:12:15;5.37;;;3.00;;
7181;SDS011;3632;42.724;23.298;2023-06-10T10:14:45;7.73;;;3.03;;
7181;SDS011;3632;42.724;23.298;2023-06-10T10:17:14;5.37;;;4.87;;
7181;SDS011;3632;42.724;23.298;2023-06-10T10:19:43;8.27;;;7.47;;
7181;SDS011;3632;42.724;23.298;2023-06-10T10:22:17;8.03;;;5.33;;
7181;SDS011;3632;42.724;23.298;2023-06-10T10:24:49;6.40;;;5.80;;
7181;SDS011;3632;42.724;23.298;2023-06-10T10:27:18;5.67;;;4.57;;
7181;SDS011;3632;42.724;23.298;2023-06-10T10:29:51;5.20;;;3.80;;
7181;SDS011;3632;42.724;23.298;2023-06-10T10:32:21;6.97;;;3.47;;
7181;SDS011;3632;42.724;23.298;2023-06-10T10:34:56;3.40;;;2.90;;
7181;SDS011;3632;42.724;23.298;2023-06-10T10:37:33;3.40;;;3.10;;
7181;SDS011;3632;42.724;23.298;2023-06-10T10:40:00;3.17;;;2.70;;
7181;SDS011;3632;42.724;23.298;2023-06-10T10:42:31;3.50;;;2.77;;
7181;SDS011;3632;42.724;23.298;2023-06-10T10:45:01;4.23;;;3.87;;
7181;SDS011;3632;42.724;23.298;2023-06-10T10:47:29;3.30;;;3.00;;
7181;SDS011;3632;42.724;23.298;2023-06-10T10:49:57;3.70;;;3.07;;
7181;SDS011;3632;42.724;23.298;2023-06-10T10:52:25;3.63;;;2.97;;
7181;SDS011;3632;42.724;23.298;2023-06-10T10:55:14;3.70;;;3.00;;
7181;SDS011;3632;42.724;23.298;2023-06-10T10:57:40;3.67;;;3.37;;
7181;SDS011;3632;42.724;23.298;2023-06-10T11:00:08;8.17;;;3.53;;
7181;SDS011;3632;42.724;23.298;2023-06-10T11:02:40;4.27;;;3.30;;
7181;SDS011;3632;42.724;23.298;2023-06-10T11:05:09;3.53;;;3.20;;
7181;SDS011;3632;42.724;23.298;2023-06-10T11:07:37;5.47;;;3.33;;
7181;SDS011;3632;42.724;23.298;2023-06-10T11:10:07;4.13;;;3.50;;
7181;SDS011;3632;42.724;23.298;2023-06-10T11:12:43;3.50;;;3.20;;
7181;SDS011;3632;42.724;23.298;2023-06-10T11:15:18;3.57;;;2.97;;
7181;SDS011;3632;42.724;23.298;2023-06-10T11:20:59;7.37;;;6.37;;
7181;SDS011;3632;42.724;23.298;2023-06-10T11:23:34;4.60;;;4.10;;
7181;SDS011;3632;42.724;23.298;2023-06-10T11:29:11;5.87;;;3.63;;
7181;SDS011;3632;42.724;23.298;2023-06-10T11:31:43;5.67;;;3.37;;
7181;SDS011;3632;42.724;23.298;2023-06-10T11:34:12;5.27;;;4.87;;
7181;SDS011;3632;42.724;23.298;2023-06-10T11:36:40;6.40;;;5.30;;
7181;SDS011;3632;42.724;23.298;2023-06-10T11:39:10;4.43;;;3.73;;
7181;SDS011;3632;42.724;23.298;2023-06-10T11:41:38;4.90;;;3.80;;
7181;SDS011;3632;42.724;23.298;2023-06-10T11:44:07;3.50;;;3.20;;
7181;SDS011;3632;42.724;23.298;2023-06-10T11:46:36;4.00;;;3.53;;
7181;SDS011;3632;42.724;23.298;2023-06-10T11:49:04;3.80;;;3.50;;
7181;SDS011;3632;42.724;23.298;2023-06-10T11:51:33;4.60;;;4.20;;
7181;SDS011;3632;42.724;23.298;2023-06-10T11:54:02;5.57;;;3.77;;
7181;SDS011;3632;42.724;23.298;2023-06-10T11:56:29;3.83;;;3.30;;
7181;SDS011;3632;42.724;23.298;2023-06-10T11:58:57;3.57;;;3.27;;
7181;SDS011;3632;42.724;23.298;2023-06-10T12:01:29;4.57;;;3.43;;
7181;SDS011;3632;42.724;23.298;2023-06-10T12:03:58;4.13;;;3.20;;
7181;SDS011;3632;42.724;23.298;2023-06-10T12:06:26;3.57;;;3.20;;
7181;SDS011;3632;42.724;23.298;2023-06-10T12:08:53;6.03;;;3.40;;
7181;SDS011;3632;42.724;23.298;2023-06-10T12:11:21;4.70;;;4.07;;
7181;SDS011;3632;42.724;23.298;2023-06-10T12:13:48;6.33;;;3.43;;
7181;SDS011;3632;42.724;23.298;2023-06-10T12:16:15;13.63;;;4.20;;
7181;SDS011;3632;42.724;23.298;2023-06-10T12:18:44;6.63;;;3.37;;
7181;SDS011;3632;42.724;23.298;2023-06-10T12:21:16;4.70;;;3.63;;
7181;SDS011;3632;42.724;23.298;2023-06-10T12:24:04;4.13;;;3.73;;
7181;SDS011;3632;42.724;23.298;2023-06-10T12:26:36;4.80;;;3.20;;
7181;SDS011;3632;42.724;23.298;2023-06-10T12:29:21;3.50;;;3.20;;
7181;SDS011;3632;42.724;23.298;2023-06-10T12:31:59;3.47;;;3.17;;
7181;SDS011;3632;42.724;23.298;2023-06-10T12:34:31;6.33;;;3.67;;
7181;SDS011;3632;42.724;23.298;2023-06-10T12:37:05;5.03;;;3.70;;
7181;SDS011;3632;42.724;23.298;2023-06-10T12:39:38;4.70;;;4.30;;
7181;SDS011;3632;42.724;23.298;2023-06-10T12:42:06;3.70;;;3.40;;
7181;SDS011;3632;42.724;23.298;2023-06-10T12:44:38;4.40;;;3.77;;
7181;SDS011;3632;42.724;23.298;2023-06-10T12:47:09;6.53;;;5.43;;
7181;SDS011;3632;42.724;23.298;2023-06-10T12:49:37;7.37;;;4.33;;
7181;SDS011;3632;42.724;23.298;2023-06-10T12:52:08;3.60;;;3.30;;
7181;SDS011;3632;42.724;23.298;2023-06-10T12:54:35;3.40;;;3.10;;
7181;SDS011;3632;42.724;23.298;2023-06-10T12:57:05;3.93;;;3.60;;
7181;SDS011;3632;42.724;23.298;2023-06-10T12:59:33;5.73;;;4.23;;
7181;SDS011;3632;42.724;23.298;2023-06-10T13:01:59;5.30;;;3.53;;
7181;SDS011;3632;42.724;23.298;2023-06-10T13:04:27;4.17;;;3.47;;
7181;SDS011;3632;42.724;23.298;2023-06-10T13:06:54;5.37;;;4.77;;
7181;SDS011;3632;42.724;23.298;2023-06-10T13:09:22;4.67;;;3.80;;
7181;SDS011;3632;42.724;23.298;2023-06-10T13:11:49;7.53;;;4.50;;
7181;SDS011;3632;42.724;23.298;2023-06-10T13:14:17;11.00;;;6.57;;
7181;SDS011;3632;42.724;23.298;2023-06-10T13:16:44;12.73;;;6.30;;
7181;SDS011;3632;42.724;23.298;2023-06-10T13:19:11;7.50;;;4.90;;
7181;SDS011;3632;42.724;23.298;2023-06-10T13:21:38;5.70;;;4.37;;
7181;SDS011;3632;42.724;23.298;2023-06-10T13:24:06;5.97;;;5.03;;
7181;SDS011;3632;42.724;23.298;2023-06-10T13:26:34;5.90;;;4.50;;
7181;SDS011;3632;42.724;23.298;2023-06-10T13:29:01;6.60;;;4.60;;
7181;SDS011;3632;42.724;23.298;2023-06-10T13:31:28;7.03;;;4.60;;
7181;SDS011;3632;42.724;23.298;2023-06-10T13:33:54;4.77;;;4.37;;
7181;SDS011;3632;42.724;23.298;2023-06-10T13:36:21;6.97;;;4.50;;
7181;SDS011;3632;42.724;23.298;2023-06-10T13:38:48;8.23;;;4.73;;
7181;SDS011;3632;42.724;23.298;2023-06-10T13:41:15;8.10;;;4.30;;
7181;SDS011;3632;42.724;23.298;2023-06-10T13:43:43;5.43;;;4.40;;
7181;SDS011;3632;42.724;23.298;2023-06-10T13:46:10;7.50;;;4.80;;
7181;SDS011;3632;42.724;23.298;2023-06-10T13:48:37;5.47;;;4.87;;
7181;SDS011;3632;42.724;23.298;2023-06-10T13:51:04;6.37;;;5.03;;
7181;SDS011;3632;42.724;23.298;2023-06-10T13:53:31;4.73;;;4.30;;
7181;SDS011;3632;42.724;23.298;2023-06-10T13:55:59;6.23;;;4.40;;
7181;SDS011;3632;42.724;23.298;2023-06-10T13:58:26;4.80;;;4.17;;
7181;SDS011;3632;42.724;23.298;2023-06-10T14:00:58;6.40;;;4.40;;
7181;SDS011;3632;42.724;23.298;2023-06-10T14:03:26;5.07;;;4.37;;
7181;SDS011;3632;42.724;23.298;2023-06-10T14:05:53;5.43;;;4.47;;
7181;SDS011;3632;42.724;23.298;2023-06-10T14:08:20;6.27;;;4.33;;
7181;SDS011;3632;42.724;23.298;2023-06-10T14:10:47;8.43;;;4.00;;
7181;SDS011;3632;42.724;23.298;2023-06-10T14:13:15;7.70;;;3.83;;
7181;SDS011;3632;42.724;23.298;2023-06-10T14:15:42;4.93;;;4.10;;
7181;SDS011;3632;42.724;23.298;2023-06-10T14:18:10;4.73;;;4.30;;
7181;SDS011;3632;42.724;23.298;2023-06-10T14:20:37;6.17;;;4.07;;
7181;SDS011;3632;42.724;23.298;2023-06-10T14:23:04;5.33;;;4.07;;
7181;SDS011;3632;42.724;23.298;2023-06-10T14:25:31;12.30;;;5.30;;
7181;SDS011;3632;42.724;23.298;2023-06-10T14:27:59;10.30;;;4.60;;
7181;SDS011;3632;42.724;23.298;2023-06-10T14:30:26;5.33;;;4.20;;
7181;SDS011;3632;42.724;23.298;2023-06-10T14:32:53;4.77;;;4.37;;
7181;SDS011;3632;42.724;23.298;2023-06-10T14:35:21;6.07;;;4.50;;
7181;SDS011;3632;42.724;23.298;2023-06-10T14:37:48;6.20;;;4.30;;
7181;SDS011;3632;42.724;23.298;2023-06-10T14:40:14;6.33;;;4.30;;
7181;SDS011;3632;42.724;23.298;2023-06-10T14:42:41;17.67;;;5.03;;
7181;SDS011;3632;42.724;23.298;2023-06-10T14:45:08;11.30;;;5.20;;
7181;SDS011;3632;42.724;23.298;2023-06-10T14:47:36;10.33;;;4.20;;
7181;SDS011;3632;42.724;23.298;2023-06-10T14:50:03;5.53;;;4.90;;
7181;SDS011;3632;42.724;23.298;2023-06-10T14:52:31;6.23;;;4.50;;
7181;SDS011;3632;42.724;23.298;2023-06-10T14:54:58;5.63;;;4.33;;
7181;SDS011;3632;42.724;23.298;2023-06-10T14:57:25;4.30;;;3.90;;
7181;SDS011;3632;42.724;23.298;2023-06-10T14:59:52;7.10;;;6.10;;
7181;SDS011;3632;42.724;23.298;2023-06-10T15:02:21;7.43;;;4.50;;
7181;SDS011;3632;42.724;23.298;2023-06-10T15:04:47;9.67;;;5.50;;
7181;SDS011;3632;42.724;23.298;2023-06-10T15:07:14;7.40;;;5.10;;
7181;SDS011;3632;42.724;23.298;2023-06-10T15:09:42;9.27;;;4.63;;
7181;SDS011;3632;42.724;23.298;2023-06-10T15:12:09;7.27;;;4.47;;
7181;SDS011;3632;42.724;23.298;2023-06-10T15:14:36;4.60;;;3.80;;